Terminal Aerodrome Forecast
Issued by NWS Omaha/Valley, NE

Home | Current Version | Previous Version | Graphics & Text | Print | Product List | Glossary On
Versions: 1 2 3 4 5 6 7 8 9 10 11 12 13 14 15 16 17 18 19 20 21 22 23 24 25 26 27 28 29 30 31 32 33 34 35 36 37
466
FTUS43 KOAX 240651 AAA
TAFOFK
TAF AMD
KOFK 240651Z 2407/2506 20005KT P6SM SCT120
      TEMPO 2407/2410 1 1/2SM BR
     FM241000 22004KT 4SM BR SCT120
      TEMPO 2411/2414 2SM BR
     FM241500 14008KT P6SM BKN050
     FM250200 13008KT P6SM VCTS OVC040CB=

USA.gov is the U.S. government's official web portal to all federal, state and local government web resources and services.